createdAt,value
2023-04-24T00:02:59.458Z,12.27
2023-04-24T00:08:03.403Z,12.29
2023-04-24T00:13:07.053Z,12.31
2023-04-24T00:18:10.722Z,12.34
2023-04-24T00:23:14.430Z,12.37
2023-04-24T00:28:18.120Z,12.40
2023-04-24T00:33:21.892Z,12.42
2023-04-24T00:38:25.859Z,12.45
2023-04-24T00:43:29.437Z,12.48
2023-04-24T00:48:33.306Z,12.48
2023-04-24T00:53:36.993Z,12.49
2023-04-24T00:58:41.412Z,12.48
2023-04-24T01:03:46.142Z,12.47
2023-04-24T01:08:50.377Z,12.45
2023-04-24T01:13:54.050Z,12.43
2023-04-24T01:18:57.857Z,12.41
2023-04-24T01:24:01.688Z,12.40
2023-04-24T01:29:05.431Z,12.38
2023-04-24T01:34:09.528Z,12.35
2023-04-24T01:39:14.109Z,12.35
2023-04-24T01:44:19.265Z,12.34
2023-04-24T01:49:23.382Z,12.34
2023-04-24T01:54:27.157Z,12.34
2023-04-24T01:59:34.946Z,12.33
2023-04-24T02:04:38.860Z,12.32
2023-04-24T02:09:42.920Z,12.32
2023-04-24T02:14:46.934Z,12.29
2023-04-24T02:19:50.876Z,12.27
2023-04-24T02:24:54.610Z,12.25
2023-04-24T02:29:58.410Z,12.21
2023-04-24T02:35:02.741Z,12.16
2023-04-24T02:40:07.248Z,12.11
2023-04-24T02:45:11.612Z,12.03
2023-04-24T02:50:15.334Z,11.97
2023-04-24T02:55:19.175Z,11.95
2023-04-24T03:00:23.177Z,11.93
2023-04-24T03:05:26.832Z,11.92
2023-04-24T03:10:30.840Z,11.92
2023-04-24T03:15:34.844Z,11.93
2023-04-24T03:20:38.844Z,11.95
2023-04-24T03:25:44.118Z,11.93
2023-04-24T03:30:48.741Z,11.89
2023-04-24T03:35:54.064Z,11.86
2023-04-24T03:40:57.922Z,11.79
2023-04-24T03:46:15.292Z,11.73
2023-04-24T03:51:24.278Z,11.72
2023-04-24T03:56:30.219Z,11.73
2023-04-24T04:01:37.962Z,11.74
2023-04-24T04:06:52.515Z,11.77
2023-04-24T04:11:56.563Z,11.78
2023-04-24T04:17:00.342Z,11.77
2023-04-24T04:22:04.226Z,11.75
2023-04-24T04:27:19.958Z,11.74
2023-04-24T04:32:36.473Z,11.77
2023-04-24T04:37:41.553Z,11.80
2023-04-24T04:43:20.487Z,11.92
2023-04-24T04:48:30.047Z,12.35
2023-04-24T04:53:36.387Z,12.84
2023-04-24T04:58:40.654Z,13.54
2023-04-24T05:03:47.414Z,14.18
2023-04-24T05:08:57.344Z,14.41
2023-04-24T05:14:10.764Z,14.58
2023-04-24T05:19:16.209Z,15.06
2023-04-24T05:24:22.723Z,15.31
2023-04-24T05:29:45.489Z,15.44
2023-04-24T05:34:51.038Z,15.45
2023-04-24T05:39:55.932Z,15.39
2023-04-24T05:45:00.774Z,15.42
2023-04-24T05:50:04.755Z,15.49
2023-04-24T05:55:09.309Z,15.46
2023-04-24T06:00:15.602Z,15.39
2023-04-24T06:05:22.431Z,15.37
2023-04-24T06:10:26.942Z,15.42
2023-04-24T06:15:34.660Z,15.55
2023-04-24T06:20:53.736Z,15.73
2023-04-24T06:25:57.748Z,15.92
2023-04-24T06:31:01.557Z,16.12
2023-04-24T06:36:05.861Z,16.27
2023-04-24T06:41:09.547Z,16.25
2023-04-24T06:46:13.571Z,16.16
2023-04-24T06:51:18.881Z,16.06
2023-04-24T06:56:22.757Z,15.95
2023-04-24T07:01:26.841Z,15.89
2023-04-24T07:06:33.131Z,15.93
2023-04-24T07:11:38.210Z,16.13
2023-04-24T07:16:42.006Z,16.34
2023-04-24T07:21:46.178Z,16.52
2023-04-24T07:26:49.953Z,16.82
2023-04-24T07:31:55.377Z,17.10
2023-04-24T07:36:59.169Z,17.37
2023-04-24T07:42:04.734Z,17.66
2023-04-24T07:47:08.441Z,18.04
2023-04-24T07:52:12.133Z,18.52
2023-04-24T07:57:15.953Z,18.90
2023-04-24T08:02:19.719Z,19.14
2023-04-24T08:07:25.798Z,19.14
2023-04-24T08:12:30.642Z,18.99
2023-04-24T08:17:38.193Z,18.72
2023-04-24T08:22:42.914Z,18.60
2023-04-24T08:27:46.737Z,18.57
2023-04-24T08:32:50.499Z,18.29
2023-04-24T08:37:55.288Z,17.96
2023-04-24T08:42:59.944Z,17.67
2023-04-24T08:48:04.175Z,17.34
2023-04-24T08:53:09.042Z,17.14
2023-04-24T08:58:13.500Z,17.41
2023-04-24T09:03:18.527Z,18.02
2023-04-24T09:08:25.859Z,18.56
2023-04-24T09:13:30.114Z,18.95
2023-04-24T09:18:35.155Z,19.08
2023-04-24T09:23:38.972Z,19.32
2023-04-24T09:28:42.677Z,19.86
2023-04-24T09:33:59.072Z,20.08
2023-04-24T09:39:17.030Z,20.11
2023-04-24T09:44:23.025Z,20.18
2023-04-24T09:49:31.420Z,20.55
2023-04-24T09:54:35.258Z,20.75
2023-04-24T09:59:48.103Z,20.66
2023-04-24T10:05:01.331Z,20.58
2023-04-24T10:10:06.434Z,20.57
2023-04-24T10:15:13.785Z,20.47
2023-04-24T10:20:17.731Z,20.32
2023-04-24T10:25:23.094Z,20.03
2023-04-24T10:30:37.845Z,19.69
2023-04-24T10:35:49.288Z,19.50
2023-04-24T10:40:53.124Z,19.37
2023-04-24T10:46:07.472Z,19.38
2023-04-24T10:51:15.555Z,19.79
2023-04-24T10:56:19.686Z,20.32
2023-04-24T11:01:28.233Z,20.41
2023-04-24T11:06:37.408Z,20.19
2023-04-24T11:11:47.438Z,19.81
2023-04-24T11:16:58.811Z,19.47
2023-04-24T11:22:05.232Z,19.20
2023-04-24T11:27:15.645Z,19.00
2023-04-24T11:32:28.768Z,19.16
2023-04-24T11:37:38.202Z,19.37
2023-04-24T11:42:46.306Z,19.64
2023-04-24T11:47:50.332Z,20.00
2023-04-24T11:52:54.934Z,20.24
2023-04-24T11:58:00.629Z,20.40
2023-04-24T12:03:13.617Z,20.39
2023-04-24T12:08:38.210Z,20.29
2023-04-24T12:13:42.476Z,20.09
2023-04-24T12:18:47.379Z,19.84
2023-04-24T12:23:52.290Z,19.46
2023-04-24T12:28:56.182Z,18.98
2023-04-24T12:34:00.024Z,18.53
2023-04-24T12:39:03.802Z,18.20
2023-04-24T12:44:12.028Z,17.88
2023-04-24T12:49:15.739Z,17.57
2023-04-24T12:54:19.474Z,17.46
2023-04-24T12:59:23.436Z,17.42
2023-04-24T13:04:27.205Z,17.33
2023-04-24T13:09:31.859Z,17.18
2023-04-24T13:14:36.094Z,16.84
2023-04-24T13:19:41.875Z,16.07
2023-04-24T13:24:51.714Z,15.31
2023-04-24T13:29:55.457Z,14.67
2023-04-24T13:34:59.369Z,14.23
2023-04-24T13:40:03.306Z,13.92
2023-04-24T13:45:23.423Z,13.72
2023-04-24T13:50:28.423Z,13.58
2023-04-24T13:55:32.512Z,13.55
2023-04-24T14:00:36.659Z,13.60
2023-04-24T14:05:40.515Z,13.70
2023-04-24T14:10:44.334Z,13.76
2023-04-24T14:15:48.384Z,13.77
2023-04-24T14:20:52.164Z,13.75
2023-04-24T14:25:56.078Z,13.74
2023-04-24T14:31:00.065Z,13.73
2023-04-24T14:36:06.921Z,13.75
2023-04-24T14:41:14.320Z,13.80
2023-04-24T14:46:21.806Z,13.87
2023-04-24T14:51:26.947Z,13.92
2023-04-24T14:56:35.202Z,13.96
2023-04-24T15:01:39.244Z,14.02
2023-04-24T15:06:43.830Z,14.07
2023-04-24T15:11:48.346Z,14.08
2023-04-24T15:16:52.716Z,14.04
2023-04-24T15:21:56.576Z,13.94
2023-04-24T15:27:02.885Z,13.79
2023-04-24T15:32:08.877Z,13.60
2023-04-24T15:37:14.026Z,13.43
2023-04-24T15:42:18.008Z,13.27
2023-04-24T15:47:22.034Z,13.12
2023-04-24T15:52:26.139Z,13.00
2023-04-24T15:57:29.878Z,12.87
2023-04-24T16:02:34.924Z,12.75
2023-04-24T16:07:41.385Z,12.68
2023-04-24T16:12:45.329Z,12.63
2023-04-24T16:17:50.573Z,12.59
2023-04-24T16:22:54.452Z,12.56
2023-04-24T16:27:58.881Z,12.53
2023-04-24T16:33:07.592Z,12.50
2023-04-24T16:38:12.434Z,12.47
2023-04-24T16:43:16.323Z,12.42
2023-04-24T16:48:20.264Z,12.37
2023-04-24T16:53:24.028Z,12.33
2023-04-24T16:58:27.913Z,12.26
2023-04-24T17:03:32.841Z,12.20
2023-04-24T17:08:37.559Z,12.16
2023-04-24T17:13:41.977Z,12.11
2023-04-24T17:18:47.627Z,12.07
2023-04-24T17:23:53.675Z,12.04
2023-04-24T17:28:58.277Z,11.99
2023-04-24T17:34:05.891Z,11.96
2023-04-24T17:39:11.477Z,11.92
2023-04-24T17:44:16.637Z,11.86
2023-04-24T17:49:22.538Z,11.82
2023-04-24T17:54:30.140Z,11.77
2023-04-24T17:59:35.706Z,11.74
2023-04-24T18:04:41.518Z,11.70
2023-04-24T18:09:47.150Z,11.64
2023-04-24T18:14:59.794Z,11.58
2023-04-24T18:20:13.542Z,11.51
2023-04-24T18:25:22.469Z,11.45
2023-04-24T18:30:28.637Z,11.35
2023-04-24T18:35:33.790Z,11.30
2023-04-24T18:40:38.790Z,11.27
2023-04-24T18:45:44.348Z,11.26
2023-04-24T18:50:51.906Z,11.26
2023-04-24T18:55:58.289Z,11.26
2023-04-24T19:01:02.647Z,11.26
2023-04-24T19:06:20.223Z,11.26
2023-04-24T19:11:26.922Z,11.28
2023-04-24T19:16:32.258Z,11.28
2023-04-24T19:21:37.580Z,11.29
2023-04-24T19:26:42.694Z,11.28
2023-04-24T19:31:49.266Z,11.26
2023-04-24T19:36:57.119Z,11.21
2023-04-24T19:42:05.862Z,11.15
2023-04-24T19:47:14.380Z,11.10
2023-04-24T19:52:18.528Z,11.05
2023-04-24T19:57:23.209Z,10.96
2023-04-24T20:02:28.252Z,10.87
2023-04-24T20:07:32.484Z,10.75
2023-04-24T20:12:38.332Z,10.66
2023-04-24T20:17:42.274Z,10.58
2023-04-24T20:22:46.497Z,10.53
2023-04-24T20:27:51.049Z,10.49
2023-04-24T20:32:55.041Z,10.47
2023-04-24T20:37:59.888Z,10.45
2023-04-24T20:43:04.964Z,10.43
2023-04-24T20:48:10.502Z,10.41
2023-04-24T20:53:14.298Z,10.41
2023-04-24T20:58:22.540Z,10.41
2023-04-24T21:03:27.708Z,10.41
2023-04-24T21:08:31.605Z,10.39
2023-04-24T21:13:35.433Z,10.36
2023-04-24T21:18:41.489Z,10.34
2023-04-24T21:23:46.532Z,10.31
2023-04-24T21:28:52.069Z,10.34
2023-04-24T21:33:56.517Z,10.41
2023-04-24T21:39:00.294Z,10.48
2023-04-24T21:44:04.298Z,10.57
2023-04-24T21:49:08.122Z,10.63
2023-04-24T21:54:12.071Z,10.63
2023-04-24T21:59:16.014Z,10.62
2023-04-24T22:04:20.449Z,10.58
2023-04-24T22:09:24.990Z,10.51
2023-04-24T22:14:28.745Z,10.42
2023-04-24T22:19:32.627Z,10.35
2023-04-24T22:24:36.998Z,10.30
2023-04-24T22:29:41.183Z,10.31
2023-04-24T22:34:45.173Z,10.27
2023-04-24T22:39:49.934Z,10.19
2023-04-24T22:44:54.428Z,10.05
2023-04-24T22:49:58.936Z,9.88
2023-04-24T22:55:03.290Z,9.75
2023-04-24T23:00:11.551Z,9.59
2023-04-24T23:05:15.403Z,9.39
2023-04-24T23:10:19.241Z,9.25
2023-04-24T23:15:23.075Z,9.20
2023-04-24T23:20:27.310Z,9.13
2023-04-24T23:25:33.089Z,9.06
2023-04-24T23:30:37.101Z,9.02
2023-04-24T23:35:42.375Z,8.94
2023-04-24T23:40:46.277Z,8.83
2023-04-24T23:45:50.044Z,8.70
2023-04-24T23:50:53.896Z,8.54
2023-04-24T23:55:57.668Z,8.37
